createdAt,value
2018-12-22T00:00:01.778Z,58.99
2018-12-22T00:05:09.084Z,59.15
2018-12-22T00:10:14.704Z,59.79
2018-12-22T00:15:19.608Z,59.60
2018-12-22T00:20:24.467Z,59.51
2018-12-22T00:25:29.964Z,58.74
2018-12-22T00:30:34.901Z,58.69
2018-12-22T00:35:39.923Z,60.45
2018-12-22T00:40:45.273Z,61.57
2018-12-22T00:45:50.261Z,62.48
2018-12-22T00:50:55.186Z,62.79
2018-12-22T00:56:00.216Z,63.38
2018-12-22T01:01:05.322Z,63.59
2018-12-22T01:06:10.465Z,64.31
2018-12-22T01:11:16.321Z,64.11
2018-12-22T01:16:21.596Z,63.35
2018-12-22T01:21:26.603Z,62.86
2018-12-22T01:26:32.011Z,62.22
2018-12-22T01:31:37.094Z,61.55
2018-12-22T01:36:41.933Z,61.23
2018-12-22T01:41:49.512Z,60.43
2018-12-22T01:46:54.447Z,59.66
2018-12-22T01:51:59.567Z,59.49
2018-12-22T01:57:04.708Z,58.23
2018-12-22T02:02:09.992Z,57.54
2018-12-22T02:07:14.806Z,56.14
2018-12-22T02:12:19.639Z,55.71
2018-12-22T02:17:24.537Z,54.51
2018-12-22T02:22:29.397Z,53.07
2018-12-22T02:27:34.244Z,52.25
2018-12-22T02:32:39.315Z,52.27
2018-12-22T02:37:44.231Z,52.22
2018-12-22T02:42:49.089Z,52.38
2018-12-22T02:47:54.206Z,52.78
2018-12-22T02:52:59.548Z,52.86
2018-12-22T02:58:04.496Z,53.42
2018-12-22T03:03:09.255Z,52.71
2018-12-22T03:08:14.085Z,52.71
2018-12-22T03:13:19.119Z,52.79
2018-12-22T03:18:23.923Z,53.21
2018-12-22T03:23:28.789Z,53.25
2018-12-22T03:28:33.878Z,53.03
2018-12-22T03:33:38.667Z,52.86
2018-12-22T03:38:43.846Z,53.70
2018-12-22T03:43:48.800Z,52.91
2018-12-22T03:48:53.593Z,53.89
2018-12-22T03:53:58.459Z,55.73
2018-12-22T03:59:03.711Z,58.09
2018-12-22T04:04:10.365Z,59.50
2018-12-22T04:09:15.674Z,61.88
2018-12-22T04:14:20.475Z,62.41
2018-12-22T04:19:25.398Z,63.81
2018-12-22T04:24:30.579Z,63.93
2018-12-22T04:29:35.434Z,64.87
2018-12-22T04:34:40.651Z,66.15
2018-12-22T04:39:45.644Z,66.47
2018-12-22T04:44:50.778Z,66.69
2018-12-22T04:49:55.990Z,67.19
2018-12-22T04:55:01.003Z,66.79
2018-12-22T05:00:07.631Z,68.45
2018-12-22T05:05:12.783Z,67.15
2018-12-22T05:10:18.248Z,67.56
2018-12-22T05:15:24.377Z,68.16
2018-12-22T05:20:29.324Z,68.16
2018-12-22T05:25:34.266Z,69.10
2018-12-22T05:30:39.226Z,69.11
2018-12-22T05:35:44.415Z,69.67
2018-12-22T05:40:49.534Z,70.27
2018-12-22T05:45:54.719Z,70.38
2018-12-22T05:51:00.816Z,69.93
2018-12-22T05:56:06.427Z,70.35
2018-12-22T06:01:11.376Z,71.33
2018-12-22T06:06:16.585Z,71.00
2018-12-22T06:11:21.397Z,71.53
2018-12-22T06:16:26.201Z,71.39
2018-12-22T06:21:30.964Z,71.51
2018-12-22T06:26:35.841Z,71.56
2018-12-22T06:31:40.646Z,72.20
2018-12-22T06:36:45.633Z,72.18
2018-12-22T06:41:50.564Z,71.54
2018-12-22T06:46:55.406Z,72.82
2018-12-22T06:52:00.241Z,72.08
2018-12-22T07:02:15.873Z,71.52
2018-12-22T07:07:21.699Z,72.78
2018-12-22T07:12:26.531Z,71.49
2018-12-22T07:17:31.512Z,71.22
2018-12-22T07:22:36.445Z,71.24
2018-12-22T07:27:41.749Z,71.32
2018-12-22T07:32:47.375Z,71.86
2018-12-22T07:37:52.134Z,71.80
2018-12-22T07:42:56.944Z,71.70
2018-12-22T07:48:03.435Z,71.29
2018-12-22T07:53:08.444Z,71.26
2018-12-22T07:58:13.400Z,71.13
2018-12-22T08:03:18.339Z,70.88
2018-12-22T08:08:23.758Z,70.58
2018-12-22T08:13:29.105Z,71.07
2018-12-22T08:18:34.031Z,70.28
2018-12-22T08:23:38.875Z,69.90
2018-12-22T08:28:43.714Z,70.81
2018-12-22T08:33:48.712Z,70.00
2018-12-22T08:38:53.765Z,71.16
2018-12-22T08:43:59.782Z,72.07
2018-12-22T08:49:05.836Z,72.03
2018-12-22T08:54:10.742Z,70.70
2018-12-22T08:59:16.570Z,71.04
2018-12-22T09:04:22.144Z,70.68
2018-12-22T09:09:27.313Z,70.49
2018-12-22T09:14:32.419Z,71.12
2018-12-22T09:19:37.271Z,70.67
2018-12-22T09:24:42.060Z,70.33
2018-12-22T09:29:47.037Z,71.11
2018-12-22T09:34:51.916Z,72.31
2018-12-22T09:39:57.036Z,72.50
2018-12-22T09:45:05.731Z,70.15
2018-12-22T09:50:13.946Z,69.05
2018-12-22T09:55:18.878Z,68.95
2018-12-22T10:00:24.336Z,67.85
2018-12-22T10:05:29.357Z,66.01
2018-12-22T10:10:34.363Z,65.49
2018-12-22T10:15:39.457Z,64.59
2018-12-22T10:20:45.086Z,63.91
2018-12-22T10:25:50.142Z,64.02
2018-12-22T10:30:55.001Z,63.17
2018-12-22T10:35:59.999Z,64.20
2018-12-22T10:41:05.479Z,71.07
2018-12-22T10:46:11.443Z,72.24
2018-12-22T10:51:24.297Z,72.46
2018-12-22T10:56:27.964Z,72.66
2018-12-22T11:04:52.156Z,75.77
2018-12-22T11:09:57.015Z,74.95
2018-12-22T11:15:02.926Z,72.77
2018-12-22T11:20:08.972Z,74.13
2018-12-22T11:25:20.041Z,73.09
2018-12-22T11:30:27.646Z,74.59
2018-12-22T11:35:32.892Z,72.84
2018-12-22T11:40:38.330Z,70.88
2018-12-22T11:45:43.194Z,71.16
2018-12-22T11:50:48.131Z,71.19
2018-12-22T11:55:53.753Z,70.44
2018-12-22T12:00:58.613Z,71.09
2018-12-22T12:06:04.328Z,70.90
2018-12-22T12:11:09.772Z,71.18
2018-12-22T12:16:40.361Z,70.51
2018-12-22T12:21:45.965Z,70.62
2018-12-22T12:26:50.882Z,69.43
2018-12-22T12:31:56.325Z,70.00
2018-12-22T12:37:02.628Z,70.00
2018-12-22T12:42:07.558Z,70.26
2018-12-22T12:47:13.558Z,72.41
2018-12-22T12:52:19.011Z,72.50
2018-12-22T12:57:24.699Z,72.46
2018-12-22T13:02:30.196Z,74.15
2018-12-22T13:07:35.717Z,73.85
2018-12-22T13:12:55.123Z,74.75
2018-12-22T13:18:00.071Z,73.50
2018-12-22T13:23:06.544Z,72.33
2018-12-22T13:28:12.303Z,72.24
2018-12-22T13:33:17.449Z,71.50
2018-12-22T13:38:22.993Z,71.16
2018-12-22T13:43:28.021Z,71.02
2018-12-22T13:48:32.894Z,71.32
2018-12-22T13:58:55.095Z,72.07
2018-12-22T14:04:00.251Z,70.59
2018-12-22T14:09:07.610Z,71.68
2018-12-22T14:14:18.284Z,71.10
2018-12-22T14:19:23.650Z,70.90
2018-12-22T14:24:35.967Z,71.51
2018-12-22T14:29:40.828Z,71.20
2018-12-22T14:34:54.962Z,70.97
2018-12-22T14:39:59.788Z,71.48
2018-12-22T14:45:06.812Z,70.68
2018-12-22T14:50:12.930Z,70.36
2018-12-22T14:55:18.159Z,70.63
2018-12-22T15:00:23.520Z,69.83
2018-12-22T15:05:30.400Z,70.00
2018-12-22T15:10:36.196Z,70.82
2018-12-22T15:15:41.109Z,70.30
2018-12-22T15:20:46.400Z,70.86
2018-12-22T15:25:51.634Z,69.48
2018-12-22T15:30:56.958Z,70.05
2018-12-22T15:36:02.381Z,70.09
2018-12-22T15:41:07.773Z,70.04
2018-12-22T15:46:13.601Z,69.94
2018-12-22T15:51:18.571Z,69.80
2018-12-22T15:56:23.648Z,70.37
2018-12-22T16:01:28.747Z,69.83
2018-12-22T16:06:34.007Z,70.43
2018-12-22T16:11:39.468Z,70.62
2018-12-22T16:16:44.525Z,70.36
2018-12-22T16:21:49.652Z,69.98
2018-12-22T16:26:54.887Z,70.48
2018-12-22T16:31:59.972Z,70.67
2018-12-22T16:37:06.836Z,71.12
2018-12-22T16:42:11.806Z,71.08
2018-12-22T16:47:17.055Z,71.22
2018-12-22T16:52:22.410Z,70.62
2018-12-22T16:57:28.587Z,72.01
2018-12-22T17:02:58.544Z,72.34
2018-12-22T17:08:05.813Z,71.08
2018-12-22T17:13:12.733Z,72.26
2018-12-22T17:18:18.352Z,71.92
2018-12-22T17:23:33.149Z,72.48
2018-12-22T17:28:38.105Z,72.56
2018-12-22T17:33:43.576Z,72.46
2018-12-22T17:38:48.603Z,71.61
2018-12-22T17:43:55.202Z,71.91
2018-12-22T17:49:00.871Z,71.68
2018-12-22T17:54:07.023Z,71.01
2018-12-22T17:59:12.992Z,70.67
2018-12-22T18:04:17.925Z,70.54
2018-12-22T18:09:23.050Z,73.15
2018-12-22T18:14:28.099Z,72.60
2018-12-22T18:19:35.488Z,72.97
2018-12-22T18:24:40.599Z,73.29
2018-12-22T18:29:45.888Z,72.84
2018-12-22T18:34:50.849Z,73.95
2018-12-22T18:39:56.090Z,73.03
2018-12-22T18:45:00.998Z,73.50
2018-12-22T18:50:12.968Z,71.85
2018-12-22T18:55:18.902Z,71.57
2018-12-22T19:00:25.014Z,71.23
2018-12-22T19:05:29.973Z,69.42
2018-12-22T19:10:39.631Z,70.73
2018-12-22T19:15:47.980Z,70.78
2018-12-22T19:20:54.820Z,71.45
2018-12-22T19:25:59.823Z,71.88
2018-12-22T19:31:06.142Z,72.41
2018-12-22T19:36:11.649Z,72.27
2018-12-22T19:41:18.714Z,73.12
2018-12-22T19:46:23.981Z,73.35
2018-12-22T19:51:29.834Z,73.69
2018-12-22T19:56:35.266Z,72.74
2018-12-22T20:01:40.211Z,72.42
2018-12-22T20:06:45.229Z,72.39
2018-12-22T20:11:50.302Z,72.68
2018-12-22T20:16:56.201Z,72.09
2018-12-22T20:22:01.441Z,71.97
2018-12-22T20:27:07.525Z,73.75
2018-12-22T20:32:13.598Z,71.40
2018-12-22T20:37:19.247Z,71.20
2018-12-22T20:42:24.925Z,71.45
2018-12-22T20:47:30.910Z,70.49
2018-12-22T20:52:37.516Z,69.62
2018-12-22T20:57:43.708Z,70.36
2018-12-22T21:02:49.159Z,69.70
2018-12-22T21:07:55.278Z,69.11
2018-12-22T21:13:01.162Z,69.64
2018-12-22T21:18:07.159Z,69.43
2018-12-22T21:23:13.170Z,69.42
2018-12-22T21:28:19.362Z,70.04
2018-12-22T21:33:25.261Z,69.90
2018-12-22T21:38:30.274Z,70.81
2018-12-22T21:43:36.085Z,70.48
2018-12-22T21:53:52.303Z,70.67
2018-12-22T21:58:57.457Z,70.40
2018-12-22T22:04:03.425Z,70.66
2018-12-22T22:09:08.624Z,70.47
2018-12-22T22:14:20.107Z,70.19
2018-12-22T22:19:25.224Z,70.59
2018-12-22T22:24:30.628Z,70.15
2018-12-22T22:29:36.197Z,69.24
2018-12-22T22:34:45.610Z,68.50
2018-12-22T22:39:48.824Z,68.54
2018-12-22T22:44:53.791Z,68.40
2018-12-22T22:49:59.472Z,68.54
2018-12-22T22:55:07.043Z,67.71
2018-12-22T23:00:42.996Z,67.56
2018-12-22T23:05:47.883Z,67.15
2018-12-22T23:10:52.899Z,67.35
2018-12-22T23:15:58.561Z,66.92
2018-12-22T23:21:04.655Z,67.30
2018-12-22T23:26:09.920Z,67.42
2018-12-22T23:31:14.820Z,66.89
2018-12-22T23:36:19.844Z,66.98
2018-12-22T23:41:25.046Z,67.13
2018-12-22T23:46:29.893Z,67.03
2018-12-22T23:57:08.246Z,67.55
